»·PEaware :: N664NT KEWR-KJFK

N664NT :: KEWR-KJFK

FLIGHT INFORMATION

Flight Status: Arrived
Operator: Privately registered:
United States
More flights under this callsign
Pilot: Anonymous 328 (328)
Aircraft: Unknown
(GA7C)
More flights by this aircraft type
Origin: KEWR Newark Intl
United States
Destination: KJFK Kennedy Intl
United States
More flights between these airports :: More routes between these airports
Route: EWR4 BREZY V39 CMK V419 JUDDS NELIE MAD V1 DPK
File this flight plan on PilotEdge
Remarks:
Altitude:
(Current/Filed)
11,000ft
Speed:
(Current/Filed)
0kts
Departed: 03-Dec-22 07:53 AM
Arrived: 03-Dec-22 08:45 AM
Distance/Time
Traveled:
19nm/0:52
Distance/Time
To Go:
Arrived

Flight Plot

Page will automatically refresh every two minutes.

Flight plan parsing failed; only flown route is shown


Map Options




Map Legend


Flown Route
Filed Route
Departure Airport
Arrival Airport
Navaid (VOR, NDB)
Fix

Horizontal Profiles

Position Reports

Time Latitude Longitude Heading Altitude Ground
Speed
03-Dec-22 07:44 40.676132 -74.180450 170 19ft 0kts
03-Dec-22 07:45 40.676132 -74.180450 170 19ft 0kts
03-Dec-22 07:46 40.676132 -74.180450 170 19ft 0kts
03-Dec-22 07:47 40.676132 -74.180450 170 19ft 0kts
03-Dec-22 07:48 40.676132 -74.180450 170 19ft 0kts
03-Dec-22 07:49 40.676132 -74.180450 170 19ft 0kts
03-Dec-22 07:50 40.676132 -74.180450 170 19ft 0kts
03-Dec-22 07:51 40.675991 -74.179085 26 19ft 11kts
03-Dec-22 07:52 40.708817 -74.151543 48 2383ft 231kts
03-Dec-22 07:53 40.766556 -74.109436 334 4256ft 266kts
03-Dec-22 07:54 40.791164 -74.198471 276 9348ft 281kts
03-Dec-22 07:55 40.836258 -74.291878 342 11014ft 372kts
03-Dec-22 07:56 40.936203 -74.289803 32 11009ft 373kts
03-Dec-22 07:57 40.997372 -74.180565 57 11004ft 373kts
03-Dec-22 07:58 41.052837 -74.064156 57 11004ft 373kts
03-Dec-22 07:59 41.107941 -73.947853 57 11008ft 373kts
03-Dec-22 08:00 41.163063 -73.830986 57 11003ft 373kts
03-Dec-22 08:01 41.217892 -73.714294 58 11004ft 373kts
03-Dec-22 08:02 41.273224 -73.597427 54 11004ft 373kts
03-Dec-22 08:03 41.344036 -73.496582 44 11047ft 372kts
03-Dec-22 08:04 41.418213 -73.400375 44 10972ft 374kts
03-Dec-22 08:05 41.492683 -73.301285 44 10869ft 372kts
03-Dec-22 08:06 41.568027 -73.208298 31 11096ft 366kts
03-Dec-22 08:07 41.639290 -73.111351 50 11090ft 369kts
03-Dec-22 08:08 41.706638 -73.005859 47 10950ft 374kts
03-Dec-22 08:09 41.778252 -72.904930 46 10939ft 373kts
03-Dec-22 08:10 41.847565 -72.800972 49 10565ft 368kts
03-Dec-22 08:11 41.909542 -72.702583 50 7135ft 311kts
03-Dec-22 08:12 41.958298 -72.620682 54 4003ft 259kts
03-Dec-22 08:13 41.920033 -72.584305 219 3316ft 262kts
03-Dec-22 08:14 41.864632 -72.646774 220 2278ft 257kts
03-Dec-22 08:15 41.809227 -72.707237 220 2001ft 257kts
03-Dec-22 08:16 41.753670 -72.767242 223 1993ft 257kts
03-Dec-22 08:17 41.702370 -72.833397 222 2771ft 255kts
03-Dec-22 08:18 41.678947 -72.793388 13 2704ft 262kts
03-Dec-22 08:19 41.705933 -72.867477 255 3498ft 261kts
03-Dec-22 08:20 41.649120 -72.914963 162 2350ft 257kts
03-Dec-22 08:21 41.583893 -72.872536 153 5089ft 266kts
03-Dec-22 08:22 41.515999 -72.827011 153 8936ft 280kts
03-Dec-22 08:23 41.442390 -72.777786 153 10003ft 339kts
03-Dec-22 08:24 41.356354 -72.721176 159 10003ft 344kts
03-Dec-22 08:25 41.276455 -72.737495 217 10005ft 288kts
03-Dec-22 08:26 41.216278 -72.807816 221 9554ft 286kts
03-Dec-22 08:27 41.156902 -72.877464 221 8560ft 282kts
03-Dec-22 08:28 41.098625 -72.945885 221 7561ft 278kts
03-Dec-22 08:29 41.041698 -73.012611 221 6562ft 257kts
03-Dec-22 08:30 40.991833 -73.071037 221 6001ft 229kts
03-Dec-22 08:31 40.944012 -73.126862 221 6000ft 229kts
03-Dec-22 08:32 40.896236 -73.182480 221 5130ft 228kts
03-Dec-22 08:33 40.848759 -73.237671 221 4130ft 224kts
03-Dec-22 08:34 40.802826 -73.290955 221 3129ft 211kts
03-Dec-22 08:35 40.786343 -73.361153 263 3000ft 190kts
03-Dec-22 08:36 40.780399 -73.423698 262 2999ft 167kts
03-Dec-22 08:37 40.774605 -73.484436 262 3001ft 167kts
03-Dec-22 08:38 40.769173 -73.541122 262 3000ft 145kts
03-Dec-22 08:39 40.764065 -73.594093 262 2974ft 145kts
03-Dec-22 08:40 40.750072 -73.641624 221 2472ft 147kts
03-Dec-22 08:41 40.719536 -73.676826 225 1940ft 144kts
03-Dec-22 08:43 40.692089 -73.715736 220 1170ft 144kts
03-Dec-22 08:44 40.658592 -73.744354 211 396ft 143kts
03-Dec-22 08:45 40.629208 -73.767403 210 20ft 26kts
03-Dec-22 08:46 40.628616 -73.767883 202 20ft 0kts
03-Dec-22 08:47 40.628616 -73.767883 202 20ft 0kts
03-Dec-22 08:48 40.628616 -73.767883 202 20ft 0kts
03-Dec-22 08:49 40.628616 -73.767883 202 20ft 0kts
03-Dec-22 08:50 40.628616 -73.767883 202 20ft 0kts
03-Dec-22 08:51 40.628616 -73.767883 202 20ft 0kts

Navigation Log

Ident Type
Flight plan parsing failed, navigation log unavailable